Time;durP1;ratioP1;P1;durP2;ratioP2;P2;SDS_P1;SDS_P2;PMS_P1;PMS_P2;Temp;Humidity;BMP_temperature;BMP_pressure;BME280_temperature;BME280_humidity;BME280_pressure;Samples;Min_cycle;Max_cycle;Signal;HPM_P1;HPM_P2
2021/11/01 00:01:03;;;;;;;14.00;10.82;;;19.20;67.20;;;;;;6247096;23;20496;-81
2021/11/01 00:03:29;;;;;;;15.60;11.35;;;19.20;67.30;;;;;;6247421;23;20663;-82
2021/11/01 00:05:55;;;;;;;13.65;10.75;;;19.10;67.20;;;;;;6247311;23;20133;-81
2021/11/01 00:08:21;;;;;;;13.85;10.50;;;19.10;67.10;;;;;;6246666;23;20200;-80
2021/11/01 00:10:46;;;;;;;14.80;10.27;;;19.10;67.30;;;;;;6247003;23;20133;-81
2021/11/01 00:13:12;;;;;;;14.35;10.85;;;19.10;67.20;;;;;;6220632;23;20137;-80
2021/11/01 00:15:38;;;;;;;14.38;10.38;;;19.10;67.20;;;;;;6246801;23;20133;-81
2021/11/01 00:18:04;;;;;;;15.93;10.88;;;19.10;67.30;;;;;;6246923;23;20164;-81
2021/11/01 00:20:30;;;;;;;14.35;10.75;;;19.10;67.30;;;;;;6246947;23;20555;-81
2021/11/01 00:22:56;;;;;;;13.48;10.75;;;19.10;67.30;;;;;;6247157;23;20306;-81
2021/11/01 00:25:21;;;;;;;14.10;10.23;;;19.10;67.30;;;;;;6247119;23;20142;-81
2021/11/01 00:27:48;;;;;;;14.25;10.60;;;19.10;67.40;;;;;;6246752;23;20164;-82
2021/11/01 00:30:13;;;;;;;13.48;10.52;;;19.10;67.40;;;;;;6220348;23;20129;-81
2021/11/01 00:32:40;;;;;;;14.60;10.38;;;19.10;67.30;;;;;;6247019;23;20211;-80
2021/11/01 00:35:06;;;;;;;13.88;10.23;;;19.10;67.40;;;;;;6195562;23;20130;-81
2021/11/01 00:37:32;;;;;;;12.65;10.00;;;19.10;67.50;;;;;;6246707;23;20156;-80
2021/11/01 00:40:00;;;;;;;15.15;10.88;;;19.10;67.40;;;;;;6246949;23;20134;-81
2021/11/01 00:42:26;;;;;;;13.02;10.43;;;19.10;67.40;;;;;;6246546;23;20172;-80
2021/11/01 00:44:51;;;;;;;15.02;10.57;;;19.10;67.40;;;;;;6220027;23;20479;-81
2021/11/01 00:47:17;;;;;;;15.50;10.70;;;19.10;67.40;;;;;;6219942;23;20130;-81
2021/11/01 00:49:43;;;;;;;13.75;10.07;;;19.00;67.40;;;;;;6246654;23;20577;-79
2021/11/01 00:52:09;;;;;;;13.85;10.07;;;19.00;67.40;;;;;;6246571;23;20137;-81
2021/11/01 00:54:36;;;;;;;14.95;10.63;;;19.10;67.40;;;;;;6247228;23;20565;-81
2021/11/01 00:57:03;;;;;;;14.60;10.45;;;19.10;67.40;;;;;;6220095;23;20134;-81
2021/11/01 00:59:28;;;;;;;13.10;10.20;;;19.00;68.10;;;;;;6246436;23;20532;-80
2021/11/01 01:01:54;;;;;;;13.15;10.07;;;19.00;67.40;;;;;;6246382;23;20161;-80
2021/11/01 01:04:20;;;;;;;12.60;9.77;;;19.00;67.30;;;;;;6246441;23;20134;-80
2021/11/01 01:06:45;;;;;;;13.73;10.27;;;19.00;67.30;;;;;;6246044;23;20181;-81
2021/11/01 01:09:11;;;;;;;12.60;9.95;;;19.10;67.40;;;;;;6246713;23;20195;-81
2021/11/01 01:11:37;;;;;;;15.00;10.98;;;19.10;67.40;;;;;;6220124;23;20141;-82
2021/11/01 01:14:03;;;;;;;12.68;10.48;;;19.00;67.20;;;;;;6246424;23;20179;-80
2021/11/01 01:16:31;;;;;;;15.27;11.02;;;19.00;67.50;;;;;;6246498;23;20501;-81
2021/11/01 01:18:58;;;;;;;14.75;10.65;;;19.00;67.30;;;;;;6246639;23;20617;-81
2021/11/01 01:24:04;;;;;;;13.65;10.40;;;19.00;67.40;;;;;;6222859;23;20215;-79
2021/11/01 01:26:30;;;;;;;14.45;9.63;;;19.00;67.50;;;;;;6246498;23;20168;-81
2021/11/01 01:28:56;;;;;;;13.77;10.50;;;19.00;67.50;;;;;;6219633;23;20157;-80
2021/11/01 01:31:22;;;;;;;14.35;10.82;;;19.00;67.50;;;;;;6246080;23;20145;-81
2021/11/01 01:33:47;;;;;;;14.65;10.13;;;19.00;67.60;;;;;;6246497;23;20619;-79
2021/11/01 01:36:13;;;;;;;12.77;10.05;;;19.00;67.70;;;;;;6246517;23;20138;-79
2021/11/01 01:38:39;;;;;;;15.50;10.23;;;19.00;67.60;;;;;;6245875;23;20133;-81
2021/11/01 01:41:17;;;;;;;13.27;9.88;;;19.00;67.30;;;;;;6246168;23;20187;-80
2021/11/01 01:43:46;;;;;;;13.02;9.80;;;19.00;67.40;;;;;;6220473;23;20151;-79
2021/11/01 01:46:12;;;;;;;15.55;10.90;;;19.00;67.40;;;;;;6246417;23;20583;-81
2021/11/01 01:48:38;;;;;;;14.27;10.38;;;19.00;67.50;;;;;;6246353;23;20137;-79
2021/11/01 01:51:05;;;;;;;13.90;10.77;;;19.00;67.60;;;;;;6219298;23;20187;-81
2021/11/01 01:53:32;;;;;;;14.38;10.75;;;18.90;67.60;;;;;;6246322;23;20187;-81
2021/11/01 01:55:57;;;;;;;12.68;9.85;;;19.00;67.60;;;;;;6246009;23;20134;-79
2021/11/01 01:58:28;;;;;;;12.65;9.57;;;19.00;67.60;;;;;;6245980;23;20576;-81
2021/11/01 02:01:08;;;;;;;13.48;9.90;;;19.00;67.50;;;;;;6246265;23;20134;-82
2021/11/01 02:03:34;;;;;;;12.65;10.05;;;19.00;67.40;;;;;;6222224;23;20165;-82
2021/11/01 02:06:06;;;;;;;13.63;10.40;;;19.00;67.60;;;;;;6246008;23;20557;-80
2021/11/01 02:08:33;;;;;;;12.68;9.23;;;18.90;67.50;;;;;;6193690;23;20252;-80
2021/11/01 02:11:04;;;;;;;13.82;9.82;;;18.90;67.60;;;;;;6219677;23;20134;-80
2021/11/01 02:13:30;;;;;;;14.02;10.10;;;18.90;67.60;;;;;;6193866;23;20157;-82
2021/11/01 02:15:58;;;;;;;12.75;10.05;;;18.90;67.70;;;;;;6245764;23;20141;-80
2021/11/01 02:18:23;;;;;;;14.10;10.00;;;18.90;67.80;;;;;;6194051;23;20149;-81
2021/11/01 02:21:23;;;;;;;12.50;10.00;;;18.90;67.70;;;;;;6245924;23;20208;-81
2021/11/01 02:24:07;;;;;;;14.23;10.70;;;18.90;67.60;;;;;;6245655;23;20207;-82
2021/11/01 02:26:34;;;;;;;14.75;10.45;;;18.90;67.40;;;;;;6245791;23;20553;-81
2021/11/01 02:29:00;;;;;;;12.82;9.73;;;18.90;67.60;;;;;;6219425;23;20183;-81
2021/11/01 02:31:26;;;;;;;14.43;10.90;;;18.80;67.50;;;;;;6218874;23;20137;-80
2021/11/01 02:33:51;;;;;;;14.60;10.40;;;18.90;67.70;;;;;;6219517;23;20212;-82
2021/11/01 02:36:17;;;;;;;14.50;10.55;;;18.90;67.70;;;;;;6246159;23;20138;-81
2021/11/01 02:38:48;;;;;;;12.90;10.15;;;18.90;67.70;;;;;;6246074;23;20161;-83
2021/11/01 02:41:26;;;;;;;13.02;9.65;;;18.90;67.70;;;;;;6246195;23;20591;-81
2021/11/01 02:43:54;;;;;;;13.77;10.27;;;18.90;67.70;;;;;;6221142;23;20672;-80
2021/11/01 02:46:20;;;;;;;13.23;10.10;;;18.90;67.70;;;;;;6220987;23;20137;-80
2021/11/01 02:48:47;;;;;;;14.63;10.60;;;18.90;67.70;;;;;;6221477;23;20142;-81
2021/11/01 02:51:14;;;;;;;13.63;9.95;;;18.90;67.70;;;;;;6248183;23;20144;-81
2021/11/01 02:53:39;;;;;;;12.60;9.93;;;18.90;67.70;;;;;;6247750;23;20651;-82
2021/11/01 02:56:08;;;;;;;13.80;10.27;;;18.90;67.70;;;;;;6220997;23;20138;-81
2021/11/01 02:58:34;;;;;;;13.43;9.75;;;18.90;67.70;;;;;;6247650;23;20131;-81
2021/11/01 03:00:59;;;;;;;13.60;9.90;;;18.90;67.70;;;;;;6248057;23;20554;-80
2021/11/01 03:03:25;;;;;;;12.80;10.05;;;18.90;67.60;;;;;;6247422;23;20249;-80
2021/11/01 03:05:51;;;;;;;14.52;9.93;;;18.90;67.70;;;;;;6220818;23;20472;-81
2021/11/01 03:08:16;;;;;;;14.43;10.27;;;18.80;67.70;;;;;;6247233;23;20197;-81
2021/11/01 03:10:42;;;;;;;13.93;10.00;;;18.80;67.90;;;;;;6247907;23;20150;-81
2021/11/01 03:13:08;;;;;;;12.50;9.60;;;18.80;67.80;;;;;;6220915;23;20508;-81
2021/11/01 03:15:33;;;;;;;12.43;9.90;;;18.80;67.90;;;;;;6221158;23;20142;-80
2021/11/01 03:18:02;;;;;;;14.90;10.20;;;18.70;67.90;;;;;;6220688;23;20475;-81
2021/11/01 03:20:32;;;;;;;13.65;10.52;;;18.80;67.90;;;;;;6196823;23;20471;-81
2021/11/01 03:23:02;;;;;;;14.10;10.30;;;18.80;67.90;;;;;;6221584;23;20177;-82
2021/11/01 03:25:33;;;;;;;13.82;10.35;;;18.80;67.90;;;;;;6221709;23;20137;-80
2021/11/01 03:28:01;;;;;;;14.02;10.60;;;18.70;67.70;;;;;;6248016;23;20140;-81
2021/11/01 03:30:26;;;;;;;12.95;10.27;;;18.80;67.80;;;;;;6247451;23;20449;-82
2021/11/01 03:32:52;;;;;;;14.05;10.25;;;18.80;67.70;;;;;;6220689;23;20144;-81
2021/11/01 03:35:18;;;;;;;12.80;10.07;;;18.80;67.70;;;;;;6220669;23;20134;-81
2021/11/01 03:37:45;;;;;;;13.98;10.15;;;18.80;67.60;;;;;;6221126;23;20138;-81
2021/11/01 03:40:16;;;;;;;13.77;10.02;;;18.80;67.70;;;;;;6220822;23;20125;-82
2021/11/01 03:42:42;;;;;;;12.25;9.43;;;18.80;67.70;;;;;;6247226;23;20173;-81
2021/11/01 03:45:10;;;;;;;16.30;10.80;;;18.80;67.70;;;;;;6247283;23;20549;-81
2021/11/01 03:47:40;;;;;;;13.85;9.80;;;18.80;67.80;;;;;;6220416;23;20137;-83
2021/11/01 03:50:16;;;;;;;13.10;10.25;;;18.80;67.80;;;;;;6247579;23;20181;-81
2021/11/01 03:52:44;;;;;;;13.73;10.55;;;18.80;67.80;;;;;;6247285;23;20133;-80
2021/11/01 03:55:10;;;;;;;13.70;9.90;;;18.70;67.90;;;;;;6247402;23;20142;-83
2021/11/01 03:57:35;;;;;;;13.43;10.05;;;18.80;67.90;;;;;;6247156;23;20190;-81
2021/11/01 04:00:05;;;;;;;13.18;10.30;;;18.80;67.80;;;;;;6220333;23;20204;-82
2021/11/01 04:02:30;;;;;;;12.95;10.02;;;18.80;67.90;;;;;;6221111;23;20667;-79
2021/11/01 04:04:56;;;;;;;14.02;9.98;;;18.80;67.90;;;;;;6220447;23;20205;-80
2021/11/01 04:07:22;;;;;;;12.98;10.27;;;18.70;67.90;;;;;;6215060;23;20201;-82
2021/11/01 04:09:48;;;;;;;12.90;10.10;;;18.80;67.90;;;;;;6215212;23;20154;-81
2021/11/01 04:12:14;;;;;;;14.77;9.60;;;18.70;67.60;;;;;;6215178;23;20149;-81
2021/11/01 04:14:45;;;;;;;14.07;10.43;;;18.70;67.60;;;;;;6215486;23;20462;-81
2021/11/01 04:17:20;;;;;;;14.63;10.35;;;18.80;67.60;;;;;;6216683;23;20127;-81
2021/11/01 04:19:55;;;;;;;13.32;9.30;;;18.80;67.30;;;;;;6215290;23;20125;-82
2021/11/01 04:22:21;;;;;;;12.75;9.35;;;18.80;67.00;;;;;;6215199;23;20173;-81
2021/11/01 04:24:47;;;;;;;12.48;9.70;;;18.80;67.10;;;;;;6216479;23;20142;-81
2021/11/01 04:27:13;;;;;;;13.43;9.60;;;18.80;66.70;;;;;;6215034;23;20201;-82
2021/11/01 04:29:39;;;;;;;12.63;10.00;;;18.90;66.80;;;;;;6215090;23;20554;-80
2021/11/01 04:32:22;;;;;;;11.27;8.98;;;18.90;66.90;;;;;;6216503;23;20145;-79
2021/11/01 04:34:56;;;;;;;12.85;9.70;;;19.00;66.80;;;;;;6215279;23;20130;-80
2021/11/01 04:37:22;;;;;;;12.05;9.77;;;19.00;66.80;;;;;;6215209;23;20466;-81
2021/11/01 04:53:28;;;;;;;11.18;9.13;;;19.00;66.10;;;;;;6216219;23;20142;-80
2021/11/01 04:55:54;;;;;;;13.07;9.50;;;19.10;66.10;;;;;;6216329;23;20508;-82
2021/11/01 04:58:20;;;;;;;12.05;9.05;;;19.10;65.90;;;;;;6216242;23;20462;-82
2021/11/01 05:00:47;;;;;;;12.95;9.85;;;19.10;65.80;;;;;;6214622;23;20590;-81
2021/11/01 05:03:28;;;;;;;13.02;9.55;;;19.00;65.60;;;;;;6216559;23;20547;-80
2021/11/01 05:05:54;;;;;;;11.55;9.07;;;19.10;65.80;;;;;;6216147;23;20134;-81
2021/11/01 05:08:23;;;;;;;12.75;9.50;;;19.10;65.40;;;;;;6239888;23;20185;-81
2021/11/01 05:10:51;;;;;;;12.98;9.77;;;19.00;65.60;;;;;;6220488;23;20603;-80
2021/11/01 05:13:27;;;;;;;13.05;9.38;;;19.10;65.60;;;;;;6220337;23;20133;-81
2021/11/01 05:16:01;;;;;;;12.85;9.55;;;19.10;65.80;;;;;;6221715;23;20133;-81
2021/11/01 05:18:48;;;;;;;12.40;9.70;;;19.10;65.70;;;;;;6246407;23;20129;-82
2021/11/01 05:21:29;;;;;;;11.80;9.40;;;19.10;65.90;;;;;;6246161;23;20146;-82
2021/11/01 05:24:00;;;;;;;11.15;9.18;;;19.10;65.70;;;;;;6246461;23;20145;-82
2021/11/01 05:26:36;;;;;;;11.55;8.95;;;19.20;65.70;;;;;;6246553;23;20134;-81
2021/11/01 05:29:05;;;;;;;11.10;8.90;;;19.10;65.70;;;;;;6246275;23;20525;-81
2021/11/01 05:31:33;;;;;;;12.10;9.60;;;19.20;65.50;;;;;;6246432;23;20134;-80
2021/11/01 05:34:02;;;;;;;13.88;9.88;;;19.10;65.40;;;;;;6219450;23;20187;-82
2021/11/01 05:36:28;;;;;;;13.68;9.60;;;19.10;65.40;;;;;;6246620;23;20129;-81
2021/11/01 05:38:54;;;;;;;12.77;9.98;;;19.10;65.20;;;;;;6246453;23;20138;-80
2021/11/01 05:41:19;;;;;;;11.85;9.77;;;19.20;65.20;;;;;;6246148;23;20242;-80
2021/11/01 05:43:45;;;;;;;11.32;9.13;;;19.10;65.00;;;;;;6246112;23;20220;-81
2021/11/01 05:46:12;;;;;;;12.90;9.68;;;19.20;65.10;;;;;;6246076;23;20461;-82
2021/11/01 05:48:38;;;;;;;12.48;9.52;;;19.20;65.00;;;;;;6246404;23;20565;-80
2021/11/01 05:51:05;;;;;;;14.30;9.75;;;19.20;65.00;;;;;;6246432;23;20183;-82
2021/11/01 05:53:36;;;;;;;12.68;10.18;;;19.10;64.90;;;;;;6219686;23;20137;-80
2021/11/01 05:56:18;;;;;;;12.38;9.23;;;19.10;65.00;;;;;;6246123;23;20137;-80
2021/11/01 05:59:07;;;;;;;13.98;9.75;;;19.10;65.00;;;;;;6246495;23;20145;-81
2021/11/01 06:04:54;;;;;;;11.95;9.52;;;19.10;65.10;;;;;;6223675;23;20165;-78
2021/11/01 06:07:16;;;;;;;13.60;9.95;;;19.20;65.00;;;;;;6245428;23;20204;-81
2021/11/01 06:15:03;;;;;;;12.90;9.75;;;19.10;64.90;;;;;;6245992;23;20134;-79
2021/11/01 06:17:31;;;;;;;12.82;9.70;;;19.20;64.90;;;;;;6247755;23;20158;-81
2021/11/01 06:19:57;;;;;;;13.98;10.05;;;19.20;64.70;;;;;;6248454;23;20156;-82
2021/11/01 06:22:22;;;;;;;12.38;10.10;;;19.20;64.70;;;;;;6247941;23;20169;-81
2021/11/01 06:24:51;;;;;;;13.65;10.10;;;19.20;64.80;;;;;;6248659;23;20144;-80
2021/11/01 06:27:17;;;;;;;12.15;9.65;;;19.20;64.90;;;;;;6248332;23;20626;-79
2021/11/01 06:29:54;;;;;;;12.45;9.60;;;19.20;64.70;;;;;;6221655;23;20140;-81
2021/11/01 06:32:30;;;;;;;12.75;10.43;;;19.20;64.70;;;;;;6247942;23;20168;-81
2021/11/01 06:43:18;;;;;;;15.07;10.70;;;19.20;64.60;;;;;;6225375;23;20188;-81
2021/11/01 06:51:35;;;;;;;13.13;10.13;;;19.20;64.40;;;;;;6247843;23;20133;-82
2021/11/01 06:54:24;;;;;;;13.38;10.30;;;19.20;64.60;;;;;;6225878;23;20627;-79
2021/11/01 06:57:01;;;;;;;14.00;10.52;;;19.20;64.40;;;;;;6225021;23;20149;-81
2021/11/01 07:15:31;;;;;;;12.93;10.25;;;19.30;64.50;;;;;;6247402;23;20553;-79
2021/11/01 07:20:49;;;;;;;14.57;9.82;;;19.30;64.30;;;;;;6247248;23;20168;-80
2021/11/01 08:22:42;;;;;;;14.25;10.82;;;19.40;64.50;;;;;;6246764;23;20318;-78
2021/11/01 08:36:48;;;;;;;14.55;10.98;;;19.40;64.70;;;;;;6248070;23;20141;-77
2021/11/01 08:49:33;;;;;;;14.65;11.27;;;19.40;64.00;;;;;;6246806;23;20564;-81
2021/11/01 09:02:48;;;;;;;14.57;10.45;;;19.40;64.30;;;;;;6247023;23;20165;-79
2021/11/01 09:05:38;;;;;;;13.93;10.95;;;19.40;64.30;;;;;;6247940;23;20152;-79
2021/11/01 09:08:19;;;;;;;15.32;11.18;;;19.40;64.40;;;;;;6246277;23;20193;-79
2021/11/01 09:18:41;;;;;;;14.32;10.77;;;19.40;64.20;;;;;;6203228;23;20149;-79
2021/11/01 09:21:42;;;;;;;15.52;11.55;;;19.40;63.80;;;;;;6247136;23;20129;-78
2021/11/01 09:26:56;;;;;;;14.82;10.82;;;19.50;63.90;;;;;;6224538;23;20137;-79
2021/11/01 09:42:46;;;;;;;15.15;11.48;;;19.50;63.90;;;;;;6222852;23;20519;-78
2021/11/01 09:45:12;;;;;;;16.48;11.40;;;19.50;63.40;;;;;;6219996;23;20565;-79
2021/11/01 09:47:41;;;;;;;16.75;11.95;;;19.50;63.80;;;;;;6247237;23;20213;-79
2021/11/01 09:50:08;;;;;;;18.05;11.23;;;19.50;63.80;;;;;;6247480;23;20141;-79
2021/11/01 09:52:35;;;;;;;16.92;11.77;;;19.50;64.00;;;;;;6249469;23;20133;-80
2021/11/01 09:55:15;;;;;;;17.52;11.73;;;19.50;64.00;;;;;;6220513;23;20221;-79
2021/11/01 09:59:10;;;;;;;14.25;10.98;;;19.50;65.00;;;;;;6197775;23;20145;-79
2021/11/01 10:00:26;;;;;;;18.27;12.25;;;19.50;63.50;;;;;;6246800;23;20148;-79
2021/11/01 10:02:52;;;;;;;13.82;11.20;;;19.60;63.50;;;;;;6220210;23;20204;-79
2021/11/01 10:05:22;;;;;;;16.38;12.32;;;19.60;64.10;;;;;;6219595;23;20208;-80
2021/11/01 10:07:48;;;;;;;16.70;11.55;;;19.50;64.10;;;;;;6194472;23;20193;-79
2021/11/01 10:10:14;;;;;;;15.63;11.25;;;19.60;63.60;;;;;;6245815;23;20133;-78
2021/11/01 10:12:42;;;;;;;16.92;11.05;;;19.60;64.30;;;;;;6219063;23;20145;-78
2021/11/01 10:18:04;;;;;;;15.70;11.30;;;19.60;63.20;;;;;;6245937;23;20129;-79
2021/11/01 10:20:32;;;;;;;18.10;11.85;;;19.60;63.70;;;;;;6245967;23;20129;-79
2021/11/01 10:22:58;;;;;;;14.57;11.45;;;19.60;63.60;;;;;;6245664;23;20172;-78
2021/11/01 10:25:24;;;;;;;13.23;10.68;;;19.60;63.70;;;;;;6218664;23;20138;-79
2021/11/01 10:27:56;;;;;;;16.35;11.38;;;19.60;63.00;;;;;;6219059;23;20157;-79
2021/11/01 10:30:28;;;;;;;16.63;11.20;;;19.60;63.40;;;;;;6246222;23;20620;-80
2021/11/01 10:32:54;;;;;;;15.50;11.35;;;19.70;63.10;;;;;;6218624;23;20145;-79
2021/11/01 10:35:29;;;;;;;16.85;11.77;;;19.60;63.40;;;;;;6245772;23;20183;-79
2021/11/01 10:37:58;;;;;;;15.52;11.40;;;19.60;63.20;;;;;;6245767;23;20130;-79
2021/11/01 10:40:26;;;;;;;14.38;11.02;;;19.70;64.00;;;;;;6220221;23;20133;-78
2021/11/01 10:42:51;;;;;;;16.00;11.32;;;19.60;63.00;;;;;;6245572;23;20169;-78
2021/11/01 10:45:59;;;;;;;17.10;11.65;;;19.70;63.00;;;;;;6246037;23;20207;-80
2021/11/01 11:12:52;;;;;;;15.15;11.85;;;19.70;63.20;;;;;;6247560;23;20133;-78
2021/11/01 11:15:18;;;;;;;15.30;11.80;;;19.80;63.10;;;;;;6247580;23;20132;-78
2021/11/01 11:17:51;;;;;;;14.32;11.65;;;19.80;63.10;;;;;;6247444;23;20138;-79
2021/11/01 11:31:27;;;;;;;15.48;11.63;;;19.70;63.10;;;;;;6247625;23;20268;-79
2021/11/01 11:33:59;;;;;;;16.90;11.70;;;19.70;63.20;;;;;;6247685;23;20305;-80
2021/11/01 11:39:25;;;;;;;15.93;11.20;;;19.70;63.60;;;;;;6247051;23;20611;-79
2021/11/01 11:47:52;;;;;;;17.35;11.68;;;19.70;63.10;;;;;;6246996;23;20216;-80
2021/11/01 11:50:19;;;;;;;14.00;11.30;;;19.80;62.90;;;;;;6223195;23;20619;-77
2021/11/01 11:52:46;;;;;;;15.80;11.82;;;19.80;63.00;;;;;;6247046;23;20569;-81
2021/11/01 11:55:20;;;;;;;16.48;12.48;;;19.80;62.70;;;;;;6196030;23;20133;-80
2021/11/01 11:57:54;;;;;;;15.63;11.75;;;19.80;63.10;;;;;;6220021;23;20571;-81
2021/11/01 12:00:20;;;;;;;16.13;11.88;;;19.80;62.90;;;;;;6221147;23;20615;-82
2021/11/01 12:02:49;;;;;;;16.13;12.32;;;19.80;62.50;;;;;;6196036;23;20165;-82
2021/11/01 12:05:25;;;;;;;16.65;11.95;;;19.80;62.90;;;;;;6222329;23;20126;-82
2021/11/01 12:08:08;;;;;;;16.63;12.43;;;19.80;62.90;;;;;;6180263;23;20509;-82
2021/11/01 12:11:16;;;;;;;15.77;11.95;;;19.80;62.70;;;;;;6224515;23;20604;-84
2021/11/01 12:19:03;;;;;;;16.63;12.30;;;19.80;63.00;;;;;;6204610;23;20577;-82
2021/11/01 12:21:32;;;;;;;17.02;12.30;;;19.80;62.70;;;;;;6198790;23;20146;-83
2021/11/01 12:23:58;;;;;;;16.25;11.43;;;19.80;62.70;;;;;;6228738;23;20173;-83
2021/11/01 12:26:25;;;;;;;15.65;11.73;;;19.80;63.10;;;;;;6226472;23;20125;-83
2021/11/01 12:28:55;;;;;;;16.50;12.48;;;19.80;62.60;;;;;;6200599;23;20217;-83
2021/11/01 12:31:23;;;;;;;15.25;11.80;;;19.80;62.70;;;;;;6224447;23;20134;-81
2021/11/01 12:33:54;;;;;;;16.35;11.90;;;19.80;63.00;;;;;;6199364;23;20576;-80
2021/11/01 12:36:28;;;;;;;16.98;12.27;;;19.80;62.80;;;;;;6203686;23;20134;-82
2021/11/01 12:39:09;;;;;;;16.50;12.63;;;19.80;62.90;;;;;;6201424;23;20211;-83
2021/11/01 12:41:54;;;;;;;17.23;12.05;;;19.80;62.50;;;;;;6207425;23;20145;-80
2021/11/01 12:56:57;;;;;;;16.65;12.38;;;19.80;62.20;;;;;;6201949;23;20225;-81
2021/11/01 12:58:03;;;;;;;15.07;11.82;;;19.80;62.90;;;;;;6206897;23;20183;-82
2021/11/01 13:00:44;;;;;;;16.10;12.27;;;19.80;62.70;;;;;;6228476;23;20175;-81
2021/11/01 13:03:14;;;;;;;15.55;11.63;;;19.80;62.80;;;;;;6247454;23;20519;-82
2021/11/01 13:05:46;;;;;;;17.02;12.10;;;19.70;62.50;;;;;;6170544;23;20156;-80
2021/11/01 13:08:16;;;;;;;16.92;12.13;;;19.80;62.30;;;;;;6171389;23;20200;-80
2021/11/01 13:10:47;;;;;;;15.05;12.00;;;19.80;62.60;;;;;;6172610;23;20145;-82
2021/11/01 13:18:51;;;;;;;15.77;11.70;;;19.80;62.70;;;;;;6231392;23;20137;-81
2021/11/01 13:21:21;;;;;;;16.13;12.55;;;19.80;62.70;;;;;;6202873;23;20149;-78
2021/11/01 13:24:06;;;;;;;15.50;11.95;;;19.80;62.70;;;;;;6197986;23;20296;-80
2021/11/01 13:34:44;;;;;;;18.13;12.93;;;19.80;62.70;;;;;;6205380;23;20156;-79
2021/11/01 13:37:36;;;;;;;17.00;12.27;;;19.80;62.90;;;;;;6245718;23;20133;-76
2021/11/01 13:40:06;;;;;;;15.80;12.23;;;19.80;62.20;;;;;;6245725;23;20130;-75
2021/11/01 13:42:32;;;;;;;15.57;12.13;;;19.80;61.80;;;;;;6243801;23;20220;-75
2021/11/01 13:45:09;;;;;;;15.95;12.30;;;19.80;62.20;;;;;;6218991;23;20170;-76
2021/11/01 13:47:46;;;;;;;16.35;11.68;;;19.80;62.50;;;;;;6245864;23;20557;-75
2021/11/01 13:50:13;;;;;;;16.67;12.93;;;19.80;62.60;;;;;;6245790;23;20212;-75
2021/11/01 13:52:41;;;;;;;16.63;12.68;;;19.80;62.50;;;;;;6246177;23;20172;-75
2021/11/01 13:55:13;;;;;;;15.57;11.82;;;19.90;62.40;;;;;;6219580;23;20176;-76
2021/11/01 13:57:51;;;;;;;17.02;12.73;;;19.90;62.30;;;;;;6245471;23;20133;-76
2021/11/01 14:00:42;;;;;;;17.13;11.93;;;19.80;62.20;;;;;;6219685;23;20137;-75
2021/11/01 14:19:37;;;;;;;20.20;12.95;;;19.90;61.20;;;;;;6214931;23;20141;-75
2021/11/01 14:27:35;;;;;;;16.30;11.95;;;19.90;61.60;;;;;;6213672;23;20134;-76
2021/11/01 14:35:55;;;;;;;19.60;12.55;;;19.90;61.50;;;;;;6213622;23;20569;-75
2021/11/01 14:57:51;;;;;;;20.52;13.20;;;19.90;62.30;;;;;;6217407;23;20169;-75
2021/11/01 15:13:39;;;;;;;15.30;12.15;;;19.90;62.20;;;;;;6194891;23;20588;-75
2021/11/01 15:16:19;;;;;;;17.60;12.60;;;19.90;61.90;;;;;;6217377;23;20565;-75
2021/11/01 15:21:31;;;;;;;16.95;12.38;;;19.90;61.90;;;;;;6221215;23;20130;-75
2021/11/01 15:24:17;;;;;;;16.52;12.32;;;19.90;62.10;;;;;;6218368;23;20227;-76
2021/11/01 15:29:42;;;;;;;18.02;12.68;;;19.90;62.50;;;;;;6219573;23;20597;-75
2021/11/01 15:40:24;;;;;;;17.23;12.73;;;19.90;62.50;;;;;;6220184;23;20225;-77
2021/11/01 16:17:55;;;;;;;17.90;13.07;;;20.00;62.40;;;;;;6246694;23;20511;-77
2021/11/01 16:20:23;;;;;;;19.20;12.30;;;20.00;62.10;;;;;;6246787;23;20211;-77
2021/11/01 16:22:53;;;;;;;16.98;12.82;;;20.00;62.60;;;;;;6219767;23;20264;-77
2021/11/01 16:25:18;;;;;;;18.70;12.60;;;20.00;62.70;;;;;;6245882;23;20157;-76
2021/11/01 16:27:45;;;;;;;17.45;12.77;;;20.00;62.70;;;;;;6246824;23;20142;-77
2021/11/01 16:30:18;;;;;;;17.35;12.63;;;20.10;63.60;;;;;;6220016;23;20141;-75
2021/11/01 16:32:46;;;;;;;17.30;12.90;;;20.10;63.00;;;;;;6246232;23;20142;-76
2021/11/01 16:35:13;;;;;;;19.00;13.02;;;20.10;62.50;;;;;;6246290;23;20129;-77
2021/11/01 16:37:52;;;;;;;17.50;12.82;;;20.10;62.20;;;;;;6245304;23;20481;-77
2021/11/01 16:40:17;;;;;;;16.90;12.70;;;20.10;62.40;;;;;;6245294;23;20125;-76
2021/11/01 16:42:45;;;;;;;21.13;13.00;;;20.10;62.60;;;;;;6245741;23;20204;-77
2021/11/01 16:45:17;;;;;;;19.38;13.00;;;20.10;62.50;;;;;;6219642;23;20149;-77
2021/11/01 16:47:43;;;;;;;20.67;12.65;;;20.20;62.30;;;;;;6220355;23;20140;-76
2021/11/01 16:50:10;;;;;;;21.17;12.52;;;20.10;62.30;;;;;;6220133;23;20180;-77
2021/11/01 16:52:37;;;;;;;19.70;12.18;;;20.10;62.40;;;;;;6195035;23;20140;-76
2021/11/01 16:55:09;;;;;;;16.40;12.50;;;20.20;62.60;;;;;;6194932;23;20244;-77
2021/11/01 16:57:41;;;;;;;20.92;13.57;;;20.10;62.90;;;;;;6246867;23;20144;-77
2021/11/01 17:02:53;;;;;;;19.05;13.65;;;20.20;62.80;;;;;;6245741;23;20173;-77
2021/11/01 17:05:46;;;;;;;23.83;12.45;;;20.20;62.80;;;;;;6221009;23;20133;-77
2021/11/01 17:08:34;;;;;;;22.33;13.07;;;20.20;62.80;;;;;;6243612;23;20201;-77
2021/11/01 17:11:11;;;;;;;15.93;12.50;;;20.20;62.90;;;;;;6246232;23;20160;-77
2021/11/01 17:22:01;;;;;;;18.58;12.63;;;20.20;62.90;;;;;;6245793;23;20153;-77
2021/11/01 17:24:37;;;;;;;22.67;13.02;;;20.20;62.90;;;;;;6223613;23;20153;-77
2021/11/01 17:27:43;;;;;;;19.80;12.77;;;20.20;62.80;;;;;;6245153;23;20131;-77
2021/11/01 17:35:40;;;;;;;23.17;12.73;;;20.10;62.50;;;;;;6245851;23;20137;-77
2021/11/01 18:40:09;;;;;;;21.13;13.18;;;20.10;64.00;;;;;;6244462;23;20134;-76
2021/11/01 18:42:57;;;;;;;21.60;13.35;;;20.10;63.70;;;;;;6244891;23;20250;-77
2021/11/01 18:53:28;;;;;;;22.98;13.88;;;20.10;64.00;;;;;;6244715;23;20134;-77
2021/11/01 18:55:54;;;;;;;27.17;14.02;;;20.10;64.00;;;;;;6244639;23;20134;-76
2021/11/01 18:58:25;;;;;;;26.83;13.68;;;20.00;63.80;;;;;;6244389;23;20130;-77
2021/11/01 19:00:51;;;;;;;24.35;13.52;;;20.10;63.80;;;;;;6216687;23;20146;-77
2021/11/01 19:03:18;;;;;;;20.80;13.77;;;20.10;63.20;;;;;;6217673;23;20181;-76
2021/11/01 19:05:52;;;;;;;17.88;12.90;;;20.00;63.40;;;;;;6244159;23;20225;-76
2021/11/01 19:08:32;;;;;;;22.00;13.77;;;20.10;63.40;;;;;;6190684;23;1258147;-76
2021/11/01 19:11:26;;;;;;;24.15;12.93;;;20.10;63.90;;;;;;6246116;23;20564;-76
2021/11/01 19:14:15;;;;;;;22.48;14.73;;;20.10;64.30;;;;;;6245856;23;20240;-76
2021/11/01 20:05:16;;;;;;;22.02;13.63;;;20.00;63.20;;;;;;6201418;23;20134;-76
2021/11/01 20:10:57;;;;;;;17.50;13.68;;;20.00;62.90;;;;;;6215135;23;20161;-76
2021/11/01 20:16:13;;;;;;;20.08;13.48;;;20.00;64.00;;;;;;6216407;23;20224;-76
2021/11/01 21:26:16;;;;;;;18.50;13.05;;;19.90;65.20;;;;;;6223177;23;20130;-77
2021/11/01 21:28:42;;;;;;;19.77;13.68;;;19.90;65.20;;;;;;6246664;23;20188;-77
2021/11/01 21:31:08;;;;;;;17.48;13.13;;;19.90;65.00;;;;;;6246418;23;20141;-77
2021/11/01 21:33:35;;;;;;;16.92;12.40;;;20.00;65.20;;;;;;6219435;23;20224;-77
2021/11/01 21:36:05;;;;;;;17.80;12.90;;;19.90;65.50;;;;;;6246360;23;20160;-77
2021/11/01 21:38:32;;;;;;;18.67;12.77;;;19.90;65.40;;;;;;6245972;23;20130;-77
2021/11/01 21:40:57;;;;;;;18.85;13.60;;;19.90;65.20;;;;;;6219558;23;20125;-77
2021/11/01 21:43:23;;;;;;;19.60;14.15;;;19.90;65.20;;;;;;6246293;23;20180;-77
2021/11/01 21:45:49;;;;;;;16.77;13.25;;;19.80;65.30;;;;;;6246039;23;20558;-77
2021/11/01 21:48:15;;;;;;;19.13;13.18;;;19.90;65.60;;;;;;6219415;23;20153;-77
2021/11/01 21:50:44;;;;;;;17.02;12.82;;;19.80;65.60;;;;;;6246296;23;20460;-77
2021/11/01 21:53:10;;;;;;;16.92;13.07;;;19.80;65.70;;;;;;6246264;23;20160;-78
2021/11/01 21:55:36;;;;;;;16.77;12.90;;;19.80;65.70;;;;;;6246077;23;20461;-77
2021/11/01 21:58:10;;;;;;;21.17;14.15;;;19.80;65.70;;;;;;6245954;23;20130;-77
2021/11/01 22:01:00;;;;;;;19.35;12.98;;;19.80;65.70;;;;;;6246331;23;20133;-77
2021/11/01 22:16:53;;;;;;;18.35;13.18;;;19.70;66.00;;;;;;6222920;23;20134;-77
2021/11/01 22:22:19;;;;;;;19.70;13.43;;;19.70;66.10;;;;;;6223083;23;20272;-77
2021/11/01 22:38:45;;;;;;;18.23;13.20;;;19.70;66.20;;;;;;6222582;23;20628;-76
2021/11/01 22:41:35;;;;;;;19.10;12.82;;;19.70;66.20;;;;;;6245333;23;20174;-77
2021/11/01 22:57:25;;;;;;;18.00;12.88;;;19.50;66.30;;;;;;6245751;23;20134;-77